createdAt,value
2018-08-09T00:00:26.014Z,13.07
2018-08-09T00:02:55.724Z,8.17
2018-08-09T00:05:25.523Z,10.73
2018-08-09T00:07:55.589Z,9.30
2018-08-09T00:10:26.674Z,14.10
2018-08-09T00:12:56.618Z,13.87
2018-08-09T00:15:26.894Z,11.10
2018-08-09T00:17:56.856Z,14.20
2018-08-09T00:20:26.662Z,11.67
2018-08-09T00:22:56.456Z,12.10
2018-08-09T00:25:26.408Z,10.10
2018-08-09T00:27:56.282Z,12.27
2018-08-09T00:30:26.137Z,9.93
2018-08-09T00:32:56.252Z,10.03
2018-08-09T00:35:26.540Z,13.77
2018-08-09T00:37:56.900Z,12.60
2018-08-09T00:40:26.781Z,14.97
2018-08-09T00:42:56.756Z,11.10
2018-08-09T00:45:26.567Z,11.00
2018-08-09T00:47:56.495Z,15.00
2018-08-09T00:50:26.637Z,9.60
2018-08-09T00:52:56.398Z,9.63
2018-08-09T00:55:26.148Z,10.53
2018-08-09T00:57:56.298Z,10.43
2018-08-09T01:00:26.130Z,12.17
2018-08-09T01:02:56.000Z,12.00
2018-08-09T01:05:25.876Z,11.67
2018-08-09T01:07:56.188Z,9.57
2018-08-09T01:10:26.468Z,10.50
2018-08-09T01:12:56.498Z,9.20
2018-08-09T01:15:26.481Z,9.57
2018-08-09T01:17:56.363Z,9.00
2018-08-09T01:20:26.112Z,9.97
2018-08-09T01:22:56.136Z,10.20
2018-08-09T01:25:25.905Z,12.17
2018-08-09T01:27:55.907Z,9.93
2018-08-09T01:30:25.815Z,10.83
2018-08-09T01:32:55.535Z,10.97
2018-08-09T01:35:26.345Z,10.60
2018-08-09T01:37:56.034Z,7.70
2018-08-09T01:40:25.871Z,8.20
2018-08-09T01:43:12.689Z,10.97
2018-08-09T01:45:42.992Z,9.50
2018-08-09T01:48:12.879Z,8.30
2018-08-09T01:50:44.230Z,10.17
2018-08-09T01:53:14.299Z,7.80
2018-08-09T01:55:44.502Z,11.10
2018-08-09T01:58:18.473Z,10.10
2018-08-09T02:00:48.054Z,8.70
2018-08-09T02:03:43.405Z,10.17
2018-08-09T02:06:14.232Z,10.83
2018-08-09T02:08:45.204Z,7.97
2018-08-09T02:11:14.930Z,8.63
2018-08-09T02:13:45.519Z,7.67
2018-08-09T02:16:15.425Z,13.37
2018-08-09T02:18:46.456Z,10.47
2018-08-09T02:21:16.775Z,11.03
2018-08-09T02:23:47.497Z,10.80
2018-08-09T02:26:17.145Z,10.77
2018-08-09T02:28:47.139Z,8.20
2018-08-09T02:31:17.268Z,11.97
2018-08-09T02:33:47.753Z,7.73
2018-08-09T02:36:23.866Z,7.77
2018-08-09T02:38:53.912Z,11.93
2018-08-09T02:41:24.244Z,10.07
2018-08-09T02:43:54.215Z,10.40
2018-08-09T02:46:24.007Z,12.23
2018-08-09T02:48:53.753Z,12.90
2018-08-09T02:51:24.064Z,12.63
2018-08-09T02:53:53.810Z,11.67
2018-08-09T02:56:24.356Z,13.57
2018-08-09T02:58:54.479Z,11.17
2018-08-09T03:01:24.691Z,11.67
2018-08-09T03:03:54.568Z,11.03
2018-08-09T03:06:24.866Z,12.93
2018-08-09T03:08:54.744Z,11.57
2018-08-09T03:11:24.800Z,12.50
2018-08-09T03:13:54.670Z,15.57
2018-08-09T03:16:24.837Z,18.67
2018-08-09T03:18:54.958Z,15.80
2018-08-09T03:21:24.852Z,17.83
2018-08-09T03:23:55.234Z,20.53
2018-08-09T03:26:27.963Z,17.33
2018-08-09T03:28:58.535Z,17.30
2018-08-09T03:31:28.352Z,18.63
2018-08-09T03:33:58.230Z,16.93
2018-08-09T03:36:29.096Z,17.17
2018-08-09T03:38:58.862Z,16.17
2018-08-09T03:41:28.796Z,20.03
2018-08-09T03:43:58.654Z,17.73
2018-08-09T03:46:28.285Z,17.93
2018-08-09T03:48:58.591Z,23.43
2018-08-09T03:51:28.372Z,19.03
2018-08-09T03:53:58.139Z,17.10
2018-08-09T03:56:28.265Z,20.80
2018-08-09T03:58:58.268Z,18.50
2018-08-09T04:01:28.314Z,21.10
2018-08-09T04:03:58.217Z,19.63
2018-08-09T04:06:28.359Z,21.20
2018-08-09T04:08:58.296Z,22.03
2018-08-09T04:11:28.386Z,19.33
2018-08-09T04:13:58.103Z,18.57
2018-08-09T04:16:28.065Z,18.13
2018-08-09T04:18:58.279Z,19.00
2018-08-09T04:21:28.283Z,17.17
2018-08-09T04:23:58.265Z,18.03
2018-08-09T04:26:28.032Z,15.33
2018-08-09T04:28:57.997Z,15.40
2018-08-09T04:31:28.839Z,17.53
2018-08-09T04:33:58.775Z,18.03
2018-08-09T04:36:28.543Z,17.13
2018-08-09T04:38:58.784Z,16.57
2018-08-09T04:41:28.595Z,16.70
2018-08-09T04:43:58.860Z,15.40
2018-08-09T04:46:29.545Z,18.13
2018-08-09T04:49:00.220Z,15.63
2018-08-09T04:51:30.130Z,18.33
2018-08-09T04:54:00.606Z,15.53
2018-08-09T04:56:30.812Z,18.70
2018-08-09T04:59:00.977Z,18.13
2018-08-09T05:01:35.790Z,16.90
2018-08-09T05:04:05.684Z,15.67
2018-08-09T05:06:36.288Z,15.90
2018-08-09T05:09:10.041Z,17.37
2018-08-09T05:11:40.305Z,17.13
2018-08-09T05:14:10.072Z,15.97
2018-08-09T05:16:40.372Z,16.50
2018-08-09T05:19:10.380Z,20.17
2018-08-09T05:21:40.691Z,16.77
2018-08-09T05:24:10.675Z,24.97
2018-08-09T05:26:40.491Z,21.77
2018-08-09T05:29:17.977Z,18.73
2018-08-09T05:31:48.517Z,16.70
2018-08-09T05:34:18.478Z,17.40
2018-08-09T05:36:48.228Z,20.13
2018-08-09T05:39:18.844Z,19.67
2018-08-09T05:41:48.540Z,19.60
2018-08-09T05:44:18.200Z,20.77
2018-08-09T05:46:48.607Z,18.03
2018-08-09T05:49:18.521Z,16.87
2018-08-09T05:51:48.264Z,19.03
2018-08-09T05:54:18.058Z,21.20
2018-08-09T05:56:48.305Z,16.83
2018-08-09T05:59:18.429Z,18.20
2018-08-09T06:01:48.356Z,14.90
2018-08-09T06:04:18.757Z,19.53
2018-08-09T06:06:49.058Z,18.43
2018-08-09T06:09:19.072Z,15.43
2018-08-09T06:11:49.709Z,15.70
2018-08-09T06:14:20.766Z,14.47
2018-08-09T06:16:50.770Z,15.07
2018-08-09T06:19:21.046Z,15.58
2018-08-09T06:21:51.251Z,14.57
2018-08-09T06:24:21.631Z,14.10
2018-08-09T06:26:52.619Z,13.90
2018-08-09T06:29:22.812Z,14.30
2018-08-09T06:31:52.935Z,16.10
2018-08-09T06:34:23.517Z,18.43
2018-08-09T06:36:53.518Z,16.77
2018-08-09T06:39:23.270Z,15.37
2018-08-09T06:41:52.979Z,15.87
2018-08-09T06:44:22.880Z,17.80
2018-08-09T06:46:52.818Z,14.67
2018-08-09T06:49:24.001Z,13.97
2018-08-09T06:51:54.756Z,17.20
2018-08-09T06:54:24.641Z,17.20
2018-08-09T06:56:56.567Z,16.97
2018-08-09T06:59:26.743Z,17.27
2018-08-09T07:01:56.779Z,18.67
2018-08-09T07:04:26.847Z,21.43
2018-08-09T07:06:56.730Z,18.53
2018-08-09T07:09:26.611Z,17.83
2018-08-09T07:11:56.355Z,19.47
2018-08-09T07:14:26.231Z,18.20
2018-08-09T07:16:56.450Z,17.57
2018-08-09T07:19:26.280Z,22.50
2018-08-09T07:21:56.523Z,21.70
2018-08-09T07:24:26.355Z,20.10
2018-08-09T07:26:56.343Z,19.50
2018-08-09T07:29:26.150Z,16.87
2018-08-09T07:31:56.222Z,17.53
2018-08-09T07:34:26.064Z,18.33
2018-08-09T07:36:55.828Z,16.37
2018-08-09T07:39:26.569Z,21.00
2018-08-09T07:41:56.442Z,18.20
2018-08-09T07:44:26.862Z,19.27
2018-08-09T07:46:56.881Z,20.23
2018-08-09T07:49:26.599Z,19.00
2018-08-09T07:51:57.362Z,22.40
2018-08-09T07:54:28.549Z,33.23
2018-08-09T07:56:58.709Z,27.03
2018-08-09T07:59:28.819Z,32.07
2018-08-09T08:01:58.652Z,30.23
2018-08-09T08:04:29.062Z,28.83
2018-08-09T08:06:58.971Z,34.43
2018-08-09T08:09:29.759Z,32.90
2018-08-09T08:12:00.950Z,38.63
2018-08-09T08:14:31.000Z,37.03
2018-08-09T08:17:01.087Z,43.70
2018-08-09T08:19:31.218Z,38.97
2018-08-09T08:22:01.899Z,39.30
2018-08-09T08:24:32.514Z,40.63
2018-08-09T08:27:03.145Z,42.10
2018-08-09T08:29:36.070Z,38.67
2018-08-09T08:32:06.176Z,49.07
2018-08-09T08:34:36.412Z,44.87
2018-08-09T08:37:06.711Z,39.60
2018-08-09T08:39:36.471Z,42.17
2018-08-09T08:42:07.081Z,41.33
2018-08-09T08:44:37.014Z,38.07
2018-08-09T08:47:07.671Z,35.53
2018-08-09T08:49:37.687Z,34.43
2018-08-09T08:52:07.791Z,35.17
2018-08-09T08:54:38.323Z,31.10
2018-08-09T08:57:08.217Z,32.53
2018-08-09T08:59:38.688Z,38.60
2018-08-09T09:02:08.713Z,33.83
2018-08-09T09:04:38.816Z,35.53
2018-08-09T09:07:08.618Z,33.07
2018-08-09T09:09:38.256Z,36.37
2018-08-09T09:12:08.577Z,38.90
2018-08-09T09:14:39.003Z,36.77
2018-08-09T09:17:08.934Z,36.03
2018-08-09T09:19:39.016Z,33.50
2018-08-09T09:22:08.849Z,34.73
2018-08-09T09:24:38.506Z,33.50
2018-08-09T09:27:08.638Z,34.87
2018-08-09T09:29:38.469Z,33.13
2018-08-09T09:32:09.045Z,33.40
2018-08-09T09:34:39.193Z,30.33
2018-08-09T09:37:09.370Z,31.73
2018-08-09T09:39:39.560Z,28.87
2018-08-09T09:42:09.667Z,29.30
2018-08-09T09:44:39.905Z,28.57
2018-08-09T09:47:09.919Z,27.60
2018-08-09T09:49:40.627Z,28.43
2018-08-09T09:52:10.569Z,28.80
2018-08-09T09:54:40.791Z,29.50
2018-08-09T09:57:11.015Z,29.33
2018-08-09T09:59:40.926Z,28.87
2018-08-09T10:02:17.268Z,28.50
2018-08-09T10:04:47.936Z,26.37
2018-08-09T10:07:18.094Z,25.63
2018-08-09T10:09:48.011Z,26.47
2018-08-09T10:12:17.768Z,28.03
2018-08-09T10:14:47.647Z,26.47
2018-08-09T10:17:18.466Z,25.90
2018-08-09T10:19:48.357Z,25.00
2018-08-09T10:22:18.386Z,23.70
2018-08-09T10:24:49.097Z,25.23
2018-08-09T10:27:18.863Z,25.60
2018-08-09T10:29:49.556Z,27.23
2018-08-09T10:32:19.407Z,27.53
2018-08-09T10:34:49.384Z,26.40
2018-08-09T10:37:19.661Z,26.67
2018-08-09T10:39:49.428Z,26.07
2018-08-09T10:42:19.560Z,25.57
2018-08-09T10:44:49.509Z,23.93
2018-08-09T10:47:19.558Z,19.60
2018-08-09T10:49:50.126Z,18.97
2018-08-09T10:52:20.474Z,15.70
2018-08-09T10:54:50.413Z,16.60
2018-08-09T10:57:20.289Z,16.52
2018-08-09T10:59:50.817Z,17.07
2018-08-09T11:02:21.013Z,16.60
2018-08-09T11:04:51.132Z,16.73
2018-08-09T11:07:21.061Z,16.35
2018-08-09T11:09:51.473Z,18.00
2018-08-09T11:12:21.228Z,18.75
2018-08-09T11:14:51.034Z,18.12
2018-08-09T11:17:21.223Z,17.07
2018-08-09T11:19:51.516Z,16.42
2018-08-09T11:22:21.644Z,18.10
2018-08-09T11:24:52.082Z,17.52
2018-08-09T11:27:22.407Z,19.80
2018-08-09T11:29:52.410Z,18.33
2018-08-09T11:32:22.342Z,17.70
2018-08-09T11:34:52.251Z,17.77
2018-08-09T11:37:22.889Z,18.37
2018-08-09T11:39:53.001Z,14.00
2018-08-09T11:42:23.089Z,14.80
2018-08-09T11:44:53.122Z,17.83
2018-08-09T11:47:22.997Z,14.43
2018-08-09T11:49:52.774Z,17.37
2018-08-09T11:52:22.696Z,15.00
2018-08-09T11:54:52.443Z,12.97
2018-08-09T11:57:22.270Z,13.53
2018-08-09T11:59:52.275Z,13.33
2018-08-09T12:02:22.966Z,16.07
2018-08-09T12:04:52.985Z,14.23
2018-08-09T12:07:23.207Z,16.17
2018-08-09T12:09:53.152Z,14.87
2018-08-09T12:12:22.834Z,14.70
2018-08-09T12:14:52.922Z,14.17
2018-08-09T12:17:22.989Z,14.23
2018-08-09T12:19:53.196Z,13.53
2018-08-09T12:22:23.420Z,13.97
2018-08-09T12:24:53.799Z,14.67
2018-08-09T12:27:23.589Z,14.97
2018-08-09T12:29:53.543Z,14.23
2018-08-09T12:32:24.440Z,17.17
2018-08-09T12:34:54.261Z,14.17
2018-08-09T12:37:24.204Z,18.57
2018-08-09T12:39:54.144Z,12.73
2018-08-09T12:42:24.092Z,16.00
2018-08-09T12:44:53.811Z,14.77
2018-08-09T12:47:24.213Z,14.57
2018-08-09T12:49:54.147Z,14.80
2018-08-09T12:52:24.732Z,15.70
2018-08-09T12:54:54.496Z,15.53
2018-08-09T12:57:24.228Z,13.00
2018-08-09T12:59:54.080Z,14.87
2018-08-09T13:02:23.841Z,16.07
2018-08-09T13:04:53.601Z,13.83
2018-08-09T13:07:23.823Z,17.27
2018-08-09T13:09:53.922Z,16.70
2018-08-09T13:12:23.928Z,14.53
2018-08-09T13:14:53.721Z,14.93
2018-08-09T13:17:24.054Z,11.70
2018-08-09T13:19:54.069Z,12.73
2018-08-09T13:22:24.360Z,15.80
2018-08-09T13:24:54.247Z,12.47
2018-08-09T13:27:24.637Z,14.73
2018-08-09T13:29:54.795Z,14.00
2018-08-09T13:32:25.335Z,13.97
2018-08-09T13:34:56.261Z,12.90
2018-08-09T13:37:26.302Z,13.53
2018-08-09T13:39:56.591Z,13.93
2018-08-09T13:42:26.273Z,14.80
2018-08-09T13:44:56.235Z,16.40
2018-08-09T13:47:26.278Z,12.40
2018-08-09T13:49:56.834Z,16.55
2018-08-09T13:52:27.537Z,15.63
2018-08-09T13:54:57.364Z,14.40
2018-08-09T13:57:27.300Z,18.48
2018-08-09T13:59:58.277Z,16.40
2018-08-09T14:02:28.608Z,12.53
2018-08-09T14:04:58.524Z,12.07
2018-08-09T14:07:28.335Z,14.63
2018-08-09T14:09:59.163Z,12.43
2018-08-09T14:12:29.078Z,15.03
2018-08-09T14:14:58.696Z,10.05
2018-08-09T14:17:28.475Z,13.00
2018-08-09T14:19:58.908Z,10.43
2018-08-09T14:22:29.306Z,14.78
2018-08-09T14:24:59.200Z,15.30
2018-08-09T14:27:28.934Z,11.33
2018-08-09T14:29:58.683Z,15.20
2018-08-09T14:32:28.756Z,12.68
2018-08-09T14:34:58.864Z,10.40
2018-08-09T14:37:29.448Z,11.08
2018-08-09T14:39:59.269Z,14.98
2018-08-09T14:42:29.167Z,14.75
2018-08-09T14:44:59.045Z,14.10
2018-08-09T14:47:28.953Z,14.60
2018-08-09T14:49:58.752Z,12.15
2018-08-09T14:52:28.449Z,14.98
2018-08-09T14:54:58.499Z,19.23
2018-08-09T14:57:28.872Z,18.98
2018-08-09T14:59:58.842Z,20.20
2018-08-09T15:02:29.326Z,21.03
2018-08-09T15:04:59.391Z,18.13
2018-08-09T15:07:29.242Z,23.03
2018-08-09T15:09:59.235Z,14.83
2018-08-09T15:12:29.037Z,12.83
2018-08-09T15:14:59.134Z,11.53
2018-08-09T15:17:29.099Z,10.87
2018-08-09T15:19:59.263Z,13.13
2018-08-09T15:22:29.106Z,10.57
2018-08-09T15:24:58.957Z,11.10
2018-08-09T15:27:29.253Z,7.70
2018-08-09T15:29:59.395Z,9.13
2018-08-09T15:32:29.284Z,10.20
2018-08-09T15:34:59.033Z,8.83
2018-08-09T15:37:28.925Z,9.27
2018-08-09T15:39:58.819Z,8.30
2018-08-09T15:42:28.581Z,8.40
2018-08-09T15:44:58.558Z,9.80
2018-08-09T15:47:28.514Z,10.53
2018-08-09T15:49:58.444Z,8.73
2018-08-09T15:52:28.339Z,8.07
2018-08-09T15:54:58.505Z,10.23
2018-08-09T15:57:28.637Z,11.07
2018-08-09T15:59:58.937Z,7.40
2018-08-09T16:02:29.092Z,8.90
2018-08-09T16:04:58.893Z,9.20
2018-08-09T16:07:28.907Z,5.73
2018-08-09T16:09:58.894Z,7.30
2018-08-09T16:12:29.899Z,9.40
2018-08-09T16:14:59.772Z,8.97
2018-08-09T16:17:29.674Z,9.37
2018-08-09T16:20:00.178Z,6.77
2018-08-09T16:22:30.461Z,6.17
2018-08-09T16:25:00.830Z,6.53
2018-08-09T16:27:30.810Z,8.37
2018-08-09T16:30:00.566Z,6.37
2018-08-09T16:32:30.461Z,7.33
2018-08-09T16:35:00.415Z,9.00
2018-08-09T16:37:31.027Z,7.87
2018-08-09T16:40:00.891Z,7.40
2018-08-09T16:42:31.259Z,6.77
2018-08-09T16:45:01.290Z,6.30
2018-08-09T16:47:31.444Z,9.43
2018-08-09T16:50:01.594Z,7.20
2018-08-09T16:52:31.653Z,7.40
2018-08-09T16:55:02.354Z,7.13
2018-08-09T16:57:32.873Z,7.27
2018-08-09T17:00:02.861Z,5.53
2018-08-09T17:02:32.667Z,6.13
2018-08-09T17:05:02.884Z,5.67
2018-08-09T17:07:33.033Z,7.50
2018-08-09T17:10:03.344Z,5.00
2018-08-09T17:12:33.636Z,4.20
2018-08-09T17:15:03.423Z,4.97
2018-08-09T17:17:33.024Z,4.80
2018-08-09T17:20:02.771Z,4.87
2018-08-09T17:22:33.093Z,6.17
2018-08-09T17:25:03.153Z,8.47
2018-08-09T17:27:32.880Z,7.37
2018-08-09T17:30:03.046Z,7.70
2018-08-09T17:32:38.269Z,6.20
2018-08-09T17:35:14.814Z,7.30
2018-08-09T17:37:44.816Z,7.13
2018-08-09T17:40:27.549Z,6.83
2018-08-09T17:42:58.595Z,8.23
2018-08-09T17:45:32.532Z,5.80
2018-08-09T17:48:03.570Z,6.87
2018-08-09T17:50:33.847Z,7.93
2018-08-09T17:53:05.107Z,7.90
2018-08-09T17:55:35.239Z,7.27
2018-08-09T17:58:05.667Z,6.07
2018-08-09T18:00:36.201Z,6.07
2018-08-09T18:03:06.398Z,6.13
2018-08-09T18:05:37.393Z,8.67
2018-08-09T18:08:07.435Z,8.13
2018-08-09T18:10:37.653Z,7.27
2018-08-09T18:13:07.409Z,6.13
2018-08-09T18:15:37.436Z,10.03
2018-08-09T18:18:07.946Z,9.53
2018-08-09T18:20:38.736Z,6.83
2018-08-09T18:23:08.915Z,6.17
2018-08-09T18:25:38.896Z,4.50
2018-08-09T18:28:10.095Z,7.00
2018-08-09T18:30:40.060Z,5.53
2018-08-09T18:33:09.873Z,6.97
2018-08-09T18:35:40.687Z,6.17
2018-08-09T18:38:12.061Z,7.47
2018-08-09T18:40:41.971Z,8.33
2018-08-09T18:43:12.039Z,5.03
2018-08-09T18:45:42.606Z,7.40
2018-08-09T18:48:13.323Z,5.17
2018-08-09T18:50:43.093Z,5.37
2018-08-09T18:53:12.819Z,9.90
2018-08-09T18:55:42.626Z,7.03
2018-08-09T18:58:13.661Z,5.43
2018-08-09T19:00:44.088Z,6.47
2018-08-09T19:03:13.841Z,5.95
2018-08-09T19:05:43.905Z,5.10
2018-08-09T19:08:14.934Z,5.70
2018-08-09T19:10:44.733Z,6.77
2018-08-09T19:13:15.301Z,6.67
2018-08-09T19:15:45.121Z,5.60
2018-08-09T19:18:14.956Z,6.83
2018-08-09T19:20:44.669Z,4.07
2018-08-09T19:23:15.880Z,6.77
2018-08-09T19:25:45.553Z,7.10
2018-08-09T19:28:15.341Z,5.33
2018-08-09T19:30:45.502Z,3.90
2018-08-09T19:33:15.807Z,4.53
2018-08-09T19:35:46.038Z,4.57
2018-08-09T19:38:15.796Z,5.20
2018-08-09T19:40:45.830Z,5.43
2018-08-09T19:43:15.706Z,4.37
2018-08-09T19:45:45.550Z,4.47
2018-08-09T19:48:15.391Z,6.50
2018-08-09T19:50:45.293Z,5.13
2018-08-09T19:53:15.402Z,7.73
2018-08-09T19:55:45.484Z,6.27
2018-08-09T19:58:15.616Z,7.80
2018-08-09T20:00:45.373Z,9.83
2018-08-09T20:03:17.154Z,4.80
2018-08-09T20:05:46.836Z,5.87
2018-08-09T20:08:16.817Z,6.50
2018-08-09T20:10:46.961Z,5.27
2018-08-09T20:13:16.943Z,3.57
2018-08-09T20:15:47.040Z,4.90
2018-08-09T20:18:17.320Z,4.27
2018-08-09T20:20:47.348Z,4.43
2018-08-09T20:23:17.458Z,4.53
2018-08-09T20:25:48.352Z,5.93
2018-08-09T20:28:18.261Z,7.37
2018-08-09T20:30:48.465Z,6.13
2018-08-09T20:33:18.280Z,3.13
2018-08-09T20:35:49.106Z,13.30
2018-08-09T20:38:18.886Z,3.83
2018-08-09T20:40:49.237Z,5.10
2018-08-09T20:43:19.752Z,5.90
2018-08-09T20:45:49.545Z,4.07
2018-08-09T20:48:20.115Z,3.57
2018-08-09T20:50:49.949Z,5.40
2018-08-09T20:53:20.209Z,6.73
2018-08-09T20:55:50.337Z,5.73
2018-08-09T20:58:21.541Z,13.83
2018-08-09T21:00:51.784Z,6.50
2018-08-09T21:03:23.955Z,5.03
2018-08-09T21:05:54.135Z,5.83
2018-08-09T21:08:23.876Z,4.17
2018-08-09T21:10:53.651Z,3.43
2018-08-09T21:13:23.822Z,3.17
2018-08-09T21:15:53.729Z,2.80
2018-08-09T21:18:23.490Z,5.13
2018-08-09T21:20:53.378Z,3.80
2018-08-09T21:23:23.413Z,3.23
2018-08-09T21:25:53.263Z,9.00
2018-08-09T21:28:23.260Z,3.27
2018-08-09T21:30:53.016Z,2.33
2018-08-09T21:33:22.630Z,2.83
2018-08-09T21:35:53.465Z,2.43
2018-08-09T21:38:23.203Z,3.73
2018-08-09T21:40:53.438Z,4.43
2018-08-09T21:43:23.324Z,4.70
2018-08-09T21:45:53.186Z,3.33
2018-08-09T21:48:23.085Z,2.53
2018-08-09T21:50:52.863Z,5.13
2018-08-09T21:53:22.795Z,3.20
2018-08-09T21:55:52.617Z,2.80
2018-08-09T21:58:22.470Z,2.30
2018-08-09T22:00:58.021Z,2.77
2018-08-09T22:03:31.564Z,2.57
2018-08-09T22:06:06.482Z,2.33
2018-08-09T22:08:41.548Z,4.07
2018-08-09T22:11:18.244Z,6.00
2018-08-09T22:13:53.285Z,5.40
2018-08-09T22:16:28.544Z,3.00
2018-08-09T22:19:04.101Z,2.70
2018-08-09T22:21:39.063Z,3.63
2018-08-09T22:24:08.733Z,2.33
2018-08-09T22:26:38.583Z,3.00
2018-08-09T22:29:08.520Z,2.60
2018-08-09T22:31:38.281Z,5.37
2018-08-09T22:34:08.841Z,3.20
2018-08-09T22:36:38.504Z,4.30
2018-08-09T22:39:10.453Z,2.63
2018-08-09T22:41:40.528Z,3.83
2018-08-09T22:44:10.484Z,2.20
2018-08-09T22:46:40.483Z,7.80
2018-08-09T22:49:10.494Z,3.30
2018-08-09T22:51:40.388Z,2.23
2018-08-09T22:54:10.240Z,2.10
2018-08-09T22:56:40.185Z,5.57
2018-08-09T22:59:10.137Z,2.03
2018-08-09T23:01:40.152Z,2.73
2018-08-09T23:04:10.524Z,1.90
2018-08-09T23:06:40.218Z,3.37
2018-08-09T23:09:11.620Z,3.77
2018-08-09T23:11:41.492Z,1.17
2018-08-09T23:14:11.867Z,3.10
2018-08-09T23:16:41.638Z,3.67
2018-08-09T23:19:11.738Z,5.87
2018-08-09T23:21:41.496Z,5.33
2018-08-09T23:24:11.528Z,1.70
2018-08-09T23:26:41.508Z,1.73
2018-08-09T23:29:11.575Z,1.57
2018-08-09T23:31:41.414Z,2.30
2018-08-09T23:34:11.712Z,1.67
2018-08-09T23:36:41.832Z,2.80
2018-08-09T23:39:13.074Z,2.10
2018-08-09T23:41:43.956Z,2.17
2018-08-09T23:44:13.764Z,4.63
2018-08-09T23:46:43.550Z,4.20
2018-08-09T23:49:13.998Z,2.40
2018-08-09T23:51:43.877Z,2.70
2018-08-09T23:54:13.591Z,2.27
2018-08-09T23:56:43.599Z,1.90
2018-08-09T23:59:13.549Z,1.87
